createdAt,value
2018-05-19T00:00:01.479Z,57.5
2018-05-19T00:01:11.239Z,57.98
2018-05-19T00:02:20.984Z,58.36
2018-05-19T00:03:30.989Z,58.36
2018-05-19T00:04:41.008Z,57.48
2018-05-19T00:05:51.012Z,57.38
2018-05-19T00:07:00.808Z,57.38
2018-05-19T00:08:10.289Z,58.43
2018-05-19T00:09:19.766Z,58.33
2018-05-19T00:10:29.779Z,58.72
2018-05-19T00:11:39.537Z,58.72
2018-05-19T00:12:49.009Z,57.95
2018-05-19T00:13:58.486Z,58.24
2018-05-19T00:15:08.234Z,59.19
2018-05-19T00:16:17.979Z,58.62
2018-05-19T00:17:27.730Z,58.33
2018-05-19T00:18:37.484Z,58.52
2018-05-19T00:19:47.495Z,58.43
2018-05-19T00:20:57.241Z,58.24
2018-05-19T00:22:06.981Z,58.24
2018-05-19T00:23:16.826Z,58.33
2018-05-19T00:24:26.842Z,59.09
2018-05-19T00:25:36.590Z,59.16
2018-05-19T00:26:46.329Z,58.81
2018-05-19T00:27:56.341Z,58.62
2018-05-19T00:29:05.917Z,59
2018-05-19T00:30:15.685Z,58.97
2018-05-19T00:31:25.432Z,59.16
2018-05-19T00:32:35.179Z,58.87
2018-05-19T00:33:45.216Z,59.19
2018-05-19T00:34:54.957Z,59
2018-05-19T00:36:04.432Z,59.19
2018-05-19T00:37:14.180Z,59.09
2018-05-19T00:38:23.918Z,58.91
2018-05-19T00:39:33.394Z,58.81
2018-05-19T00:40:43.132Z,59.09
2018-05-19T00:41:52.882Z,58.91
2018-05-19T00:43:02.903Z,58.21
2018-05-19T00:44:12.641Z,58.59
2018-05-19T00:45:22.654Z,58.78
2018-05-19T00:46:32.403Z,59.16
2018-05-19T00:47:41.876Z,60.4
2018-05-19T00:48:51.619Z,60.59
2018-05-19T00:50:01.104Z,60.69
2018-05-19T00:51:10.583Z,60.49
2018-05-19T00:52:20.058Z,61.54
2018-05-19T00:53:30.065Z,62.49
2018-05-19T00:54:39.813Z,62.4
2018-05-19T00:55:49.823Z,62.02
2018-05-19T00:56:59.565Z,62.12
2018-05-19T00:58:09.043Z,62.85
2018-05-19T00:59:18.539Z,63.64
2018-05-19T01:00:28.286Z,63.23
2018-05-19T01:01:37.761Z,63.89
2018-05-19T01:02:47.769Z,63.8
2018-05-19T01:03:57.775Z,62.65
2018-05-19T01:05:07.794Z,62.94
2018-05-19T01:06:17.811Z,63.42
2018-05-19T01:07:27.289Z,63.51
2018-05-19T01:08:37.033Z,62.46
2018-05-19T01:09:47.040Z,62.56
2018-05-19T01:10:57.051Z,62.46
2018-05-19T01:12:07.067Z,62.08
2018-05-19T01:13:16.541Z,62.18
2018-05-19T01:14:26.549Z,62.65
2018-05-19T01:15:36.347Z,62.56
2018-05-19T01:16:46.091Z,62.46
2018-05-19T01:17:56.106Z,61.99
2018-05-19T01:19:05.583Z,62.56
2018-05-19T01:20:15.325Z,61.9
2018-05-19T01:21:25.345Z,61.7
2018-05-19T01:22:35.088Z,61.99
2018-05-19T01:23:45.104Z,61.9
2018-05-19T01:24:55.121Z,61.7
2018-05-19T01:26:04.931Z,61.99
2018-05-19T01:27:14.942Z,62.65
2018-05-19T01:28:24.695Z,62.56
2018-05-19T01:29:34.242Z,63.04
2018-05-19T01:30:43.995Z,63.23
2018-05-19T01:31:54.012Z,63.04
2018-05-19T01:33:03.763Z,63.99
2018-05-19T01:34:13.238Z,63.7
2018-05-19T01:35:22.716Z,63.57
2018-05-19T01:36:32.736Z,63.99
2018-05-19T01:37:42.741Z,63.99
2018-05-19T01:38:52.752Z,63.8
2018-05-19T01:40:02.491Z,63.7
2018-05-19T01:41:12.515Z,63.6
2018-05-19T01:42:22.530Z,63.51
2018-05-19T01:43:32.541Z,63.8
2018-05-19T01:44:42.558Z,63.51
2018-05-19T01:45:52.041Z,63.6
2018-05-19T01:47:02.050Z,63.89
2018-05-19T01:48:11.257Z,63.89
2018-05-19T01:49:21.001Z,63.89
2018-05-19T01:50:30.746Z,64.94
2018-05-19T01:51:40.760Z,64.56
2018-05-19T01:52:50.512Z,64.75
2018-05-19T01:54:00.521Z,64.75
2018-05-19T01:55:10.539Z,64.75
2018-05-19T01:56:20.280Z,64.65
2018-05-19T01:57:30.298Z,65.32
2018-05-19T01:58:40.303Z,65.13
2018-05-19T01:59:50.051Z,65.23
2018-05-19T02:00:59.258Z,65.13
2018-05-19T02:02:09.022Z,65.1
2018-05-19T02:03:19.050Z,65.29
2018-05-19T02:04:29.072Z,65
2018-05-19T02:05:39.073Z,65
2018-05-19T02:06:49.087Z,65
2018-05-19T02:07:58.838Z,65.58
2018-05-19T02:09:08.573Z,65.38
2018-05-19T02:10:18.313Z,66.14
2018-05-19T02:11:28.319Z,66.53
2018-05-19T02:12:37.800Z,66.53
2018-05-19T02:13:47.817Z,66.62
2018-05-19T02:14:57.830Z,66.62
2018-05-19T02:16:07.847Z,67.29
2018-05-19T02:17:17.901Z,67.19
2018-05-19T02:18:27.912Z,67.29
2018-05-19T02:19:37.943Z,68.05
2018-05-19T02:20:47.852Z,67.67
2018-05-19T02:21:57.687Z,68.05
2018-05-19T02:23:07.162Z,67.95
2018-05-19T02:24:16.902Z,67.95
2018-05-19T02:25:26.381Z,67.86
2018-05-19T02:26:35.896Z,67.67
2018-05-19T02:27:45.377Z,67.1
2018-05-19T02:28:55.123Z,67.29
2018-05-19T02:30:04.878Z,66.91
2018-05-19T02:31:14.917Z,66.62
2018-05-19T02:32:24.934Z,67
2018-05-19T02:33:34.962Z,68.62
2018-05-19T02:34:44.177Z,67.95
2018-05-19T02:35:54.211Z,68.05
2018-05-19T02:37:03.704Z,67.38
2018-05-19T02:38:13.276Z,66.72
2018-05-19T02:39:22.766Z,67.29
2018-05-19T02:40:32.518Z,67.29
2018-05-19T02:41:41.999Z,66.62
2018-05-19T02:42:52.019Z,66.81
2018-05-19T02:44:02.050Z,67.29
2018-05-19T02:45:11.525Z,67.1
2018-05-19T02:46:21.293Z,67
2018-05-19T02:47:30.773Z,67.1
2018-05-19T02:48:40.521Z,67.1
2018-05-19T02:49:50.281Z,67.29
2018-05-19T02:51:00.031Z,67.19
2018-05-19T02:52:10.072Z,67
2018-05-19T02:53:20.290Z,67.29
2018-05-19T02:54:30.071Z,67.76
2018-05-19T02:55:40.082Z,67.29
2018-05-19T02:56:50.119Z,67.47
2018-05-19T02:57:59.948Z,67.1
2018-05-19T02:59:09.348Z,67.38
2018-05-19T03:03:25.028Z,68.43
2018-05-19T03:04:35.045Z,68.62
2018-05-19T03:05:44.527Z,69.48
2018-05-19T03:06:54.280Z,69.19
2018-05-19T03:08:04.057Z,68.81
2018-05-19T03:09:14.070Z,69.48
2018-05-19T03:10:23.553Z,69.38
2018-05-19T03:11:33.039Z,69.38
2018-05-19T03:12:42.780Z,69.1
2018-05-19T03:13:52.793Z,68.52
2018-05-19T03:15:02.834Z,68.43
2018-05-19T03:16:12.593Z,69.1
2018-05-19T03:17:22.340Z,68.9
2018-05-19T03:18:32.088Z,69.29
2018-05-19T03:19:42.096Z,69.57
2018-05-19T03:20:52.157Z,69.85
2018-05-19T03:22:02.167Z,69.57
2018-05-19T03:23:11.110Z,69.19
2018-05-19T03:24:21.137Z,69.48
2018-05-19T03:25:31.161Z,71.47
2018-05-19T03:26:41.021Z,70.1
2018-05-19T03:27:50.500Z,69.48
2018-05-19T03:29:00.325Z,69.85
2018-05-19T03:30:10.352Z,69.85
2018-05-19T03:31:20.361Z,69.57
2018-05-19T03:32:29.846Z,69.19
2018-05-19T03:33:39.861Z,69.29
2018-05-19T03:34:49.614Z,69.67
2018-05-19T03:35:59.771Z,70.49
2018-05-19T03:37:09.765Z,69.67
2018-05-19T03:38:19.774Z,69.57
2018-05-19T03:39:29.821Z,70.24
2018-05-19T03:40:39.827Z,69.76
2018-05-19T03:41:49.843Z,69.54
2018-05-19T03:42:59.588Z,69.76
2018-05-19T03:44:09.332Z,69.48
2018-05-19T03:45:18.538Z,69.57
2018-05-19T03:46:28.626Z,70.43
2018-05-19T03:47:38.368Z,70.43
2018-05-19T03:48:48.386Z,70.81
2018-05-19T03:49:58.469Z,70.52
2018-05-19T03:51:08.494Z,70.52
2018-05-19T03:52:18.241Z,70.72
2018-05-19T03:53:28.254Z,70.72
2018-05-19T03:54:38.275Z,71.19
2018-05-19T03:55:48.315Z,72.14
2018-05-19T03:56:58.053Z,72.62
2018-05-19T03:58:07.532Z,73.1
2018-05-19T03:59:17.545Z,72.81
2018-05-19T04:00:27.281Z,72.52
2018-05-19T04:01:36.757Z,71.67
2018-05-19T04:02:46.766Z,71
2018-05-19T04:03:56.781Z,71.67
2018-05-19T04:05:06.529Z,70.05
2018-05-19T04:06:16.548Z,70.37
2018-05-19T04:07:26.564Z,70.33
2018-05-19T04:08:36.574Z,69.7
2018-05-19T04:09:46.585Z,69.42
2018-05-19T04:10:56.329Z,69.51
2018-05-19T04:12:06.076Z,69.32
2018-05-19T04:13:15.836Z,69.7
2018-05-19T04:14:25.312Z,69.7
2018-05-19T04:15:34.793Z,69.7
2018-05-19T04:16:44.541Z,69.51
2018-05-19T04:17:54.564Z,68.65
2018-05-19T04:19:04.048Z,68.65
2018-05-19T04:20:13.801Z,69.04
2018-05-19T04:21:23.807Z,69.13
2018-05-19T04:22:33.820Z,69.6
2018-05-19T04:23:43.830Z,69.6
2018-05-19T04:24:53.845Z,70.65
2018-05-19T04:26:03.591Z,70.56
2018-05-19T04:27:13.341Z,70.47
2018-05-19T04:28:23.358Z,70.47
2018-05-19T04:29:33.360Z,69.6
2018-05-19T04:30:42.567Z,69.79
2018-05-19T04:31:52.314Z,69.51
2018-05-19T04:33:01.808Z,69.7
2018-05-19T04:34:11.551Z,69.51
2018-05-19T04:35:21.299Z,69.83
2018-05-19T04:36:30.773Z,69.45
2018-05-19T04:37:40.249Z,69.74
2018-05-19T04:38:50.032Z,70.02
2018-05-19T04:39:59.794Z,69.26
2018-05-19T04:41:09.547Z,69.26
2018-05-19T04:42:19.575Z,70.4
2018-05-19T04:43:29.321Z,70.78
2018-05-19T04:44:39.331Z,70.12
2018-05-19T04:45:49.338Z,70.59
2018-05-19T04:46:59.347Z,70.78
2018-05-19T04:48:08.837Z,70.88
2018-05-19T04:49:18.843Z,72.21
2018-05-19T04:50:28.319Z,72.5
2018-05-19T04:51:37.798Z,71.93
2018-05-19T04:52:47.548Z,72.31
2018-05-19T04:53:57.558Z,71.64
2018-05-19T04:55:07.299Z,72.21
2018-05-19T04:56:17.051Z,70.97
2018-05-19T04:57:27.065Z,69.54
2018-05-19T04:58:36.807Z,69.35
2018-05-19T04:59:46.553Z,68.4
2018-05-19T05:00:56.558Z,68.5
2018-05-19T05:02:06.036Z,68.59
2018-05-19T05:03:15.511Z,68.4
2018-05-19T05:04:25.256Z,68.63
2018-05-19T05:05:34.735Z,68.82
2018-05-19T05:06:44.745Z,68.72
2018-05-19T05:07:54.807Z,67.58
2018-05-19T05:09:04.289Z,68.63
2018-05-19T05:10:14.303Z,68.34
2018-05-19T05:11:24.319Z,67.2
2018-05-19T05:12:34.385Z,66.44
2018-05-19T05:13:44.400Z,65.42
2018-05-19T05:14:53.935Z,63.8
2018-05-19T05:16:03.963Z,63.04
2018-05-19T05:17:13.977Z,63.42
2018-05-19T05:18:23.461Z,63.51
2018-05-19T05:19:32.935Z,62.75
2018-05-19T05:20:42.410Z,62.27
2018-05-19T05:21:52.426Z,62.27
2018-05-19T05:23:02.437Z,62.65
2018-05-19T05:24:12.454Z,61.89
2018-05-19T05:25:22.473Z,61.41
2018-05-19T05:26:31.953Z,60.84
2018-05-19T05:27:41.965Z,60.46
2018-05-19T05:28:52.026Z,59.99
2018-05-19T05:30:02.036Z,59.31
2018-05-19T05:31:12.054Z,60.11
2018-05-19T05:32:22.062Z,60.17
2018-05-19T05:33:31.536Z,59.73
2018-05-19T05:34:41.555Z,60.58
2018-05-19T05:35:51.620Z,61.63
2018-05-19T05:37:01.598Z,61.73
2018-05-19T05:38:11.624Z,60.68
2018-05-19T05:39:21.650Z,61.54
2018-05-19T05:40:31.130Z,61.16
2018-05-19T05:41:41.140Z,60.78
2018-05-19T05:42:50.884Z,60.11
2018-05-19T05:44:00.901Z,60.02
2018-05-19T05:45:10.388Z,60.68
2018-05-19T05:46:20.137Z,61.54
2018-05-19T05:47:29.615Z,61.73
2018-05-19T05:48:39.096Z,61.92
2018-05-19T05:49:49.110Z,62.11
2018-05-19T05:50:59.123Z,62.3
2018-05-19T05:52:08.330Z,61.54
2018-05-19T05:53:18.353Z,62.15
2018-05-19T05:54:28.101Z,60.61
2018-05-19T05:55:38.146Z,60.61
2018-05-19T05:56:48.154Z,61.1
2018-05-19T05:57:57.903Z,60.61
2018-05-19T05:59:07.929Z,59.76
2018-05-19T06:00:17.945Z,60.02
2018-05-19T06:01:27.965Z,60.3
2018-05-19T06:02:37.977Z,62.59
2018-05-19T06:03:47.991Z,62.88
2018-05-19T06:04:58.086Z,62.97
2018-05-19T06:06:07.576Z,62.4
2018-05-19T06:07:17.815Z,64.78
2018-05-19T06:08:27.828Z,64.69
2018-05-19T06:09:37.848Z,64.5
2018-05-19T06:10:47.868Z,63.92
2018-05-19T06:11:57.877Z,64.59
2018-05-19T06:13:07.626Z,64.88
2018-05-19T06:14:17.368Z,64.78
2018-05-19T06:15:27.113Z,64.88
2018-05-19T06:16:37.125Z,64.69
2018-05-19T06:17:46.609Z,65.26
2018-05-19T06:18:56.715Z,65.26
2018-05-19T06:20:06.750Z,66.6
2018-05-19T06:21:16.757Z,66.5
2018-05-19T06:22:26.233Z,66.41
2018-05-19T06:23:36.245Z,65.17
2018-05-19T06:24:45.992Z,64.97
2018-05-19T06:25:56.111Z,65.55
2018-05-19T06:27:06.134Z,65.07
2018-05-19T06:28:15.884Z,65.17
2018-05-19T06:29:25.907Z,65.93
2018-05-19T06:30:35.385Z,65.17
2018-05-19T06:31:44.863Z,64.12
2018-05-19T06:32:54.609Z,64.21
2018-05-19T06:34:04.363Z,64.21
2018-05-19T06:35:13.941Z,63.73
2018-05-19T06:36:23.418Z,63.54
2018-05-19T06:37:33.164Z,64.34
2018-05-19T06:38:43.280Z,62.91
2018-05-19T06:39:53.297Z,62.62
2018-05-19T06:41:03.316Z,63.67
2018-05-19T06:42:13.165Z,61.76
2018-05-19T06:43:22.911Z,61.66
2018-05-19T06:44:33.036Z,62.05
2018-05-19T06:45:43.073Z,62.78
2018-05-19T06:46:53.088Z,64.02
2018-05-19T06:48:02.888Z,62.97
2018-05-19T06:49:12.856Z,62.78
2018-05-19T06:50:22.604Z,63.64
2018-05-19T06:51:32.094Z,63.83
2018-05-19T06:52:41.845Z,63.83
2018-05-19T06:53:51.601Z,63.64
2018-05-19T06:55:01.080Z,63.92
2018-05-19T06:56:10.294Z,62.97
2018-05-19T06:57:20.307Z,63.54
2018-05-19T06:58:30.321Z,63.83
2018-05-19T06:59:40.346Z,62.59
2018-05-19T07:00:50.361Z,62.88
2018-05-19T07:02:00.110Z,63.54
2018-05-19T07:03:09.916Z,64.12
2018-05-19T07:04:19.928Z,63.83
2018-05-19T07:05:29.960Z,64.31
2018-05-19T07:06:39.711Z,63.83
2018-05-19T07:07:49.197Z,64.31
2018-05-19T07:08:59.206Z,63.64
2018-05-19T07:10:09.219Z,63.92
2018-05-19T07:11:19.233Z,64.31
2018-05-19T07:12:28.989Z,64.78
2018-05-19T07:13:38.816Z,64.21
2018-05-19T07:14:48.566Z,64.21
2018-05-19T07:15:58.681Z,64.59
2018-05-19T07:17:08.706Z,64.59
2018-05-19T07:18:18.453Z,63.73
2018-05-19T07:19:28.550Z,63.35
2018-05-19T07:20:38.618Z,63.73
2018-05-19T07:21:48.658Z,63.54
2018-05-19T07:22:58.677Z,61.95
2018-05-19T07:24:08.447Z,62.68
2018-05-19T07:25:18.465Z,61
2018-05-19T07:26:28.485Z,61.54
2018-05-19T07:27:37.702Z,61.57
2018-05-19T07:28:47.733Z,61.95
2018-05-19T07:29:57.744Z,61.86
2018-05-19T07:31:07.220Z,62.91
2018-05-19T07:32:16.700Z,62.52
2018-05-19T07:33:26.719Z,62.71
2018-05-19T07:34:36.728Z,62.91
2018-05-19T07:35:46.667Z,62.71
2018-05-19T07:36:56.373Z,63.1
2018-05-19T07:38:06.389Z,62.62
2018-05-19T07:39:15.875Z,62.15
2018-05-19T07:40:25.639Z,61.95
2018-05-19T07:41:35.658Z,61.95
2018-05-19T07:42:45.735Z,61.47
2018-05-19T07:43:55.493Z,61.76
2018-05-19T07:45:05.262Z,61.95
2018-05-19T07:46:15.271Z,61.76
2018-05-19T07:47:25.287Z,62.05
2018-05-19T07:48:35.044Z,61.51
2018-05-19T07:49:45.071Z,60.84
2018-05-19T07:50:54.683Z,60.07
2018-05-19T07:52:04.365Z,59.69
2018-05-19T07:53:14.115Z,58.93
2018-05-19T07:54:24.130Z,59.02
2018-05-19T07:55:33.610Z,59.88
2018-05-19T07:56:43.446Z,59.22
2018-05-19T07:57:53.458Z,58.93
2018-05-19T07:59:02.943Z,59.5
2018-05-19T08:00:12.428Z,59.69
2018-05-19T08:01:22.457Z,60.2
2018-05-19T08:02:32.208Z,60.01
2018-05-19T08:03:42.220Z,60.2
2018-05-19T08:04:51.966Z,59.91
2018-05-19T08:06:01.989Z,59.53
2018-05-19T08:07:11.737Z,59.18
2018-05-19T08:08:21.483Z,57.84
2018-05-19T08:09:31.228Z,57.93
2018-05-19T08:10:40.973Z,57.17
2018-05-19T08:11:50.458Z,56.98
2018-05-19T08:12:59.936Z,57.29
2018-05-19T08:14:09.418Z,56.53
2018-05-19T08:15:19.431Z,57.1
2018-05-19T08:16:28.907Z,56.05
2018-05-19T08:17:38.924Z,56.34
2018-05-19T08:18:48.940Z,56.37
2018-05-19T08:19:58.951Z,55.47
2018-05-19T08:21:08.438Z,55.88
2018-05-19T08:22:17.756Z,54.64
2018-05-19T08:23:27.781Z,54.26
2018-05-19T08:24:37.789Z,54.45
2018-05-19T08:25:47.539Z,54.64
2018-05-19T08:26:57.569Z,54.26
2018-05-19T08:28:07.060Z,55.53
2018-05-19T08:29:16.807Z,54.38
2018-05-19T08:30:26.918Z,54.19
2018-05-19T08:31:36.846Z,54.38
2018-05-19T08:32:46.859Z,53.62
2018-05-19T08:33:56.616Z,53.71
2018-05-19T08:35:06.428Z,55.75
2018-05-19T08:36:16.195Z,54.32
2018-05-19T08:37:26.210Z,54.22
2018-05-19T08:38:35.960Z,53.64
2018-05-19T08:39:45.706Z,53.07
2018-05-19T08:40:55.742Z,52.87
2018-05-19T08:42:05.565Z,53.64
2018-05-19T08:43:15.589Z,53.55
2018-05-19T08:44:25.604Z,52.62
2018-05-19T08:45:35.092Z,51.85
2018-05-19T08:46:44.853Z,52.14
2018-05-19T08:47:54.605Z,52.42
2018-05-19T08:49:04.373Z,51.95
2018-05-19T08:50:14.129Z,51.95
2018-05-19T08:51:23.873Z,52.52
2018-05-19T08:52:33.887Z,52.07
2018-05-19T08:53:43.904Z,53.5
2018-05-19T08:54:53.937Z,53.79
2018-05-19T08:56:03.429Z,53.22
2018-05-19T08:57:13.443Z,52.45
2018-05-19T08:58:23.647Z,51.3
2018-05-19T08:59:33.406Z,51.01
2018-05-19T09:00:43.436Z,50.75
2018-05-19T09:01:53.199Z,50.65
2018-05-19T09:03:03.212Z,50.84
2018-05-19T09:04:12.695Z,51.32
2018-05-19T09:05:22.445Z,52
2018-05-19T09:06:32.463Z,51.06
2018-05-19T09:07:42.687Z,50.96
2018-05-19T09:08:52.437Z,50.87
2018-05-19T09:10:02.457Z,51.45
2018-05-19T09:11:12.473Z,50.58
2018-05-19T09:12:22.489Z,50.78
2018-05-19T09:13:32.508Z,50.32
2018-05-19T09:14:42.041Z,49.62
2018-05-19T09:15:52.060Z,49.17
2018-05-19T09:17:01.544Z,49.17
2018-05-19T09:18:11.030Z,49.36
2018-05-19T09:19:20.517Z,48.97
2018-05-19T09:20:29.997Z,49.84
2018-05-19T09:21:39.477Z,49.55
2018-05-19T09:22:49.504Z,49.07
2018-05-19T09:23:59.254Z,48.11
2018-05-19T09:25:08.472Z,48.79
2018-05-19T09:26:18.228Z,48.4
2018-05-19T09:27:27.973Z,48.3
2018-05-19T09:28:37.987Z,47.92
2018-05-19T09:29:48.079Z,48.21
2018-05-19T09:30:57.869Z,48.3
2018-05-19T09:32:07.356Z,48.69
2018-05-19T09:33:17.482Z,49.65
2018-05-19T09:34:27.229Z,49.07
2018-05-19T09:35:36.805Z,48.88
2018-05-19T09:36:46.757Z,48.02
2018-05-19T09:37:56.780Z,47.27
2018-05-19T09:39:06.258Z,46.98
2018-05-19T09:40:16.007Z,46.89
2018-05-19T09:41:25.492Z,46.79
2018-05-19T09:42:35.239Z,46.89
2018-05-19T09:43:45.261Z,46.98
2018-05-19T09:44:55.277Z,47.08
2018-05-19T09:46:05.031Z,47.27
2018-05-19T09:47:14.604Z,47.17
2018-05-19T09:48:24.861Z,47.85
2018-05-19T09:49:34.344Z,48.9
2018-05-19T09:50:43.932Z,48.71
2018-05-19T09:51:53.685Z,47.85
2018-05-19T09:53:03.521Z,48.13
2018-05-19T09:54:13.465Z,48.04
2018-05-19T09:55:23.223Z,46.89
2018-05-19T09:56:32.966Z,47.17
2018-05-19T09:57:42.986Z,46.79
2018-05-19T09:58:53.006Z,46.79
2018-05-19T10:00:03.034Z,46.53
2018-05-19T10:01:12.779Z,47.3
2018-05-19T10:02:22.844Z,47.3
2018-05-19T10:03:32.870Z,46.33
2018-05-19T10:04:42.387Z,45.76
2018-05-19T10:05:52.362Z,46.53
2018-05-19T10:07:02.378Z,46.33
2018-05-19T10:08:12.143Z,45.18
2018-05-19T10:09:21.895Z,44.41
2018-05-19T10:10:31.644Z,44.43
2018-05-19T10:11:41.859Z,45.2
2018-05-19T10:12:51.628Z,45.2
2018-05-19T10:14:01.385Z,46.64
2018-05-19T10:15:10.875Z,45.59
2018-05-19T10:16:20.632Z,46.93
2018-05-19T10:17:30.656Z,46.55
2018-05-19T10:18:40.676Z,46.26
2018-05-19T10:19:50.157Z,46.64
2018-05-19T10:20:59.635Z,45.87
2018-05-19T10:22:09.126Z,46.45
2018-05-19T10:23:18.872Z,46.06
2018-05-19T10:24:28.626Z,45.51
2018-05-19T10:25:37.847Z,44.55
2018-05-19T10:26:47.364Z,44.45
2018-05-19T10:27:57.117Z,45.22
2018-05-19T10:29:06.599Z,45.03
2018-05-19T10:30:16.629Z,44.07
2018-05-19T10:31:26.641Z,45.32
2018-05-19T10:32:36.126Z,44.65
2018-05-19T10:33:45.879Z,45.7
2018-05-19T10:34:55.627Z,46.09
2018-05-19T10:36:05.192Z,45.7
2018-05-19T10:37:14.951Z,44.57
2018-05-19T10:38:24.175Z,43.9
2018-05-19T10:39:34.193Z,44.09
2018-05-19T10:40:44.208Z,43.32
2018-05-19T10:41:53.471Z,43.61
2018-05-19T10:43:03.838Z,43.41
2018-05-19T10:44:13.583Z,43.71
2018-05-19T10:45:23.597Z,43.51
2018-05-19T10:46:33.618Z,43.9
2018-05-19T10:47:43.097Z,42.57
2018-05-19T10:48:52.854Z,42.96
2018-05-19T10:50:02.603Z,43.34
2018-05-19T10:51:12.359Z,42.09
2018-05-19T10:52:22.107Z,42.57
2018-05-19T10:53:32.215Z,42.96
2018-05-19T10:54:41.967Z,42.86
2018-05-19T10:55:51.725Z,43.17
2018-05-19T10:57:01.757Z,42.21
2018-05-19T10:58:11.506Z,41.44
2018-05-19T10:59:21.538Z,40.66
2018-05-19T11:00:31.297Z,39.61
2018-05-19T11:01:40.792Z,39.89
2018-05-19T11:02:50.804Z,40.28
2018-05-19T11:04:00.563Z,39.79
2018-05-19T11:05:10.050Z,40.76
2018-05-19T11:06:19.536Z,40.95
2018-05-19T11:07:29.291Z,41.53
2018-05-19T11:08:38.777Z,40.66
2018-05-19T11:09:48.315Z,39.41
2018-05-19T11:10:58.635Z,37.68
2018-05-19T11:12:07.857Z,38.45
2018-05-19T11:13:17.621Z,34.78
2018-05-19T11:14:27.369Z,34.59
2018-05-19T11:15:37.124Z,34.88
2018-05-19T11:16:47.147Z,32.09
2018-05-19T11:17:57.164Z,33.44
2018-05-19T11:19:06.941Z,32.47
2018-05-19T11:20:16.965Z,32.76
2018-05-19T11:21:26.737Z,31.6
2018-05-19T11:22:36.770Z,31.22
2018-05-19T11:23:46.850Z,32.09
2018-05-19T11:24:56.603Z,30.93
2018-05-19T11:26:06.633Z,31.6
2018-05-19T11:27:16.668Z,31.6
2018-05-19T11:28:26.685Z,29.89
2018-05-19T11:29:36.435Z,28.36
2018-05-19T11:30:46.453Z,29.82
2018-05-19T11:31:56.470Z,28.87
2018-05-19T11:33:06.226Z,29.75
2018-05-19T11:34:15.981Z,26.87
2018-05-19T11:35:25.731Z,24.85
2018-05-19T11:36:35.754Z,24.28
2018-05-19T11:37:45.779Z,23.5
2018-05-19T11:38:55.268Z,24.49
2018-05-19T11:40:05.023Z,23.53
2018-05-19T11:41:15.047Z,21.51
2018-05-19T11:42:25.157Z,18.99
2018-05-19T11:43:34.916Z,19
2018-05-19T11:44:44.670Z,21.81
2018-05-19T11:45:54.422Z,20.65
2018-05-19T11:47:03.646Z,21.83
2018-05-19T11:48:13.414Z,21.06
2018-05-19T11:49:23.172Z,20.29
2018-05-19T11:50:33.016Z,20.96
2018-05-19T11:51:42.869Z,20.47
2018-05-19T11:52:52.919Z,20.68
2018-05-19T11:54:02.420Z,19.12
2018-05-19T11:55:11.916Z,19.13
2018-05-19T11:56:21.943Z,18.56
2018-05-19T11:57:31.698Z,19.24
2018-05-19T11:58:41.462Z,21.17
2018-05-19T11:59:51.230Z,18.95
2018-05-19T12:01:01.257Z,18.27
2018-05-19T12:02:10.479Z,19.35
2018-05-19T12:03:19.971Z,18.96
2018-05-19T12:04:29.462Z,19.74
2018-05-19T12:05:38.955Z,18.49
2018-05-19T12:06:48.945Z,18.29
2018-05-19T12:07:58.990Z,18.98
2018-05-19T12:09:08.485Z,17.8
2018-05-19T12:10:18.290Z,18.39
2018-05-19T12:11:28.321Z,17.71
2018-05-19T12:12:38.347Z,18.59
2018-05-19T12:13:48.108Z,18.6
2018-05-19T12:14:58.140Z,18.7
2018-05-19T12:16:07.697Z,16.56
2018-05-19T12:17:17.726Z,18.12
2018-05-19T12:18:27.757Z,17.55
2018-05-19T12:19:37.520Z,16.88
2018-05-19T12:20:47.548Z,17.09
2018-05-19T12:21:57.309Z,16
2018-05-19T12:23:06.893Z,16.97
2018-05-19T12:24:16.936Z,15.8
2018-05-19T12:25:26.973Z,16.48
2018-05-19T12:26:36.473Z,16.96
2018-05-19T12:27:46.339Z,16.85
2018-05-19T12:28:56.376Z,17.43
2018-05-19T12:30:06.793Z,18.19
2018-05-19T12:31:16.830Z,18.21
2018-05-19T12:32:26.861Z,18.19
2018-05-19T12:33:36.629Z,18.4
2018-05-19T12:34:46.385Z,18.41
2018-05-19T12:35:56.421Z,19.88
2018-05-19T12:37:06.186Z,19.11
2018-05-19T12:38:16.045Z,16.68
2018-05-19T12:39:25.810Z,15.91
2018-05-19T12:40:35.572Z,17.37
2018-05-19T12:41:45.073Z,16.88
2018-05-19T12:42:54.830Z,16.66
2018-05-19T12:44:04.627Z,16.17
2018-05-19T12:45:14.393Z,16.46
2018-05-19T12:46:24.162Z,17.23
2018-05-19T12:47:33.929Z,16.95
2018-05-19T12:48:43.195Z,17.15
2018-05-19T12:49:52.817Z,17.25
2018-05-19T12:51:02.307Z,18.42
2018-05-19T12:52:12.334Z,17.74
2018-05-19T12:53:22.361Z,17.55
2018-05-19T12:54:32.391Z,18.13
2018-05-19T12:55:42.157Z,16.88
2018-05-19T12:56:51.658Z,16.49
2018-05-19T12:58:01.421Z,16.88
2018-05-19T12:59:10.920Z,17.16
2018-05-19T13:00:20.956Z,17.25
2018-05-19T13:01:30.719Z,16.68
2018-05-19T13:02:40.494Z,16.3
2018-05-19T13:03:50.258Z,17.16
2018-05-19T13:05:00.287Z,17.06
2018-05-19T13:06:10.323Z,17.25
2018-05-19T13:07:20.353Z,17.35
2018-05-19T13:08:30.216Z,17.05
2018-05-19T13:09:39.716Z,16.68
2018-05-19T13:10:49.488Z,16.28
2018-05-19T13:11:59.512Z,17.16
2018-05-19T13:13:09.096Z,17.55
2018-05-19T13:14:19.131Z,16.69
2018-05-19T13:15:28.894Z,16.1
2018-05-19T13:16:38.921Z,16.3
2018-05-19T13:17:48.687Z,17.48
2018-05-19T13:18:58.714Z,16.61
2018-05-19T13:20:08.480Z,14.37
2018-05-19T13:21:18.249Z,16.9
2018-05-19T13:22:28.283Z,17
2018-05-19T13:23:37.780Z,15.53
2018-05-19T13:24:47.544Z,17.29
2018-05-19T13:25:57.525Z,16.31
2018-05-19T13:27:07.300Z,17.97
2018-05-19T13:28:17.069Z,17.77
2018-05-19T13:29:26.579Z,16.21
2018-05-19T13:30:36.691Z,16.89
2018-05-19T13:31:46.732Z,16.71
2018-05-19T13:32:56.496Z,16.32
2018-05-19T13:34:06.528Z,15.36
2018-05-19T13:35:16.569Z,14.69
2018-05-19T13:36:26.612Z,15.38
2018-05-19T13:37:36.661Z,14.12
2018-05-19T13:38:46.484Z,14.7
2018-05-19T13:39:56.537Z,14.89
2018-05-19T13:41:06.303Z,14.78
2018-05-19T13:42:15.803Z,14.47
2018-05-19T13:43:25.690Z,16.12
2018-05-19T13:44:35.723Z,16.8
2018-05-19T13:45:45.755Z,17.18
2018-05-19T13:46:55.902Z,16.59
2018-05-19T13:48:05.393Z,15.83
2018-05-19T13:49:14.621Z,15.54
2018-05-19T13:50:24.390Z,14.66
2018-05-19T13:51:34.416Z,15.73
2018-05-19T13:52:44.179Z,17.41
2018-05-19T13:53:53.952Z,15.27
2018-05-19T13:55:03.717Z,16.15
2018-05-19T13:56:13.757Z,17.02
2018-05-19T13:57:23.867Z,15.95
2018-05-19T13:58:33.904Z,14.87
2018-05-19T13:59:43.699Z,15.55
2018-05-19T14:00:53.204Z,15.95
2018-05-19T14:02:03.025Z,15.55
2018-05-19T14:03:13.057Z,16.13
2018-05-19T14:04:22.553Z,15.17
2018-05-19T14:05:32.310Z,15.37
2018-05-19T14:06:42.333Z,14.69
2018-05-19T14:07:52.099Z,15.28
2018-05-19T14:09:01.874Z,14.79
2018-05-19T14:10:11.104Z,14.59
2018-05-19T14:11:21.141Z,14.19
2018-05-19T14:12:31.171Z,16.33
2018-05-19T14:13:40.672Z,16.61
2018-05-19T14:14:50.437Z,16.03
2018-05-19T14:16:00.199Z,15.15
2018-05-19T14:17:10.246Z,16.22
2018-05-19T14:18:20.068Z,16.32
2018-05-19T14:19:29.974Z,15.34
2018-05-19T14:20:39.738Z,17
2018-05-19T14:21:49.770Z,17.1
2018-05-19T14:22:59.798Z,15.15
2018-05-19T14:24:09.827Z,14.66
2018-05-19T14:25:19.597Z,14.95
2018-05-19T14:26:29.360Z,16.41
2018-05-19T14:27:38.649Z,16.41
2018-05-19T14:28:48.321Z,17.08
2018-05-19T14:29:58.402Z,16.51
2018-05-19T14:31:07.923Z,15.44
2018-05-19T14:32:17.695Z,14.27
2018-05-19T14:33:27.543Z,17.79
2018-05-19T14:34:37.307Z,16.72
2018-05-19T14:35:47.373Z,15.74
2018-05-19T14:36:57.401Z,14.58
2018-05-19T14:38:06.970Z,14.67
2018-05-19T14:39:16.733Z,14.2
2018-05-19T14:40:26.373Z,13.81
2018-05-19T14:41:36.671Z,13.71
2018-05-19T14:42:45.901Z,14.19
2018-05-19T14:43:55.937Z,15.16
2018-05-19T14:45:05.711Z,14.49
2018-05-19T14:46:15.744Z,14.89
2018-05-19T14:47:25.775Z,14.4
2018-05-19T14:48:35.537Z,15.26
2018-05-19T14:49:45.309Z,15.25
2018-05-19T14:50:55.084Z,17.2
2018-05-19T14:52:04.849Z,15.94
2018-05-19T14:53:14.731Z,14.86
2018-05-19T14:54:25.095Z,14.76
2018-05-19T14:55:34.865Z,15.34
2018-05-19T14:56:44.896Z,15.35
2018-05-19T14:57:54.664Z,14.08
2018-05-19T14:59:04.434Z,15.45
2018-05-19T15:00:14.468Z,15.36
2018-05-19T15:01:24.308Z,14.97
2018-05-19T15:02:34.067Z,14.29
2018-05-19T15:03:44.098Z,14.38
2018-05-19T15:04:53.870Z,15.34
2018-05-19T15:06:03.907Z,15.84